createdAt,value
2023-03-16T00:02:11.834Z,5.30
2023-03-16T00:04:40.339Z,5.10
2023-03-16T00:07:10.858Z,5.20
2023-03-16T00:09:41.425Z,5.20
2023-03-16T00:12:18.868Z,5.30
2023-03-16T00:14:48.975Z,5.30
2023-03-16T00:17:19.693Z,5.20
2023-03-16T00:19:55.740Z,5.20
2023-03-16T00:22:25.769Z,5.20
2023-03-16T00:24:53.213Z,5.20
2023-03-16T00:27:22.654Z,5.20
2023-03-16T00:29:55.826Z,5.20
2023-03-16T00:32:30.218Z,5.20
2023-03-16T00:34:58.182Z,5.10
2023-03-16T00:37:28.238Z,5.10
2023-03-16T00:39:56.424Z,5.00
2023-03-16T00:42:29.783Z,5.10
2023-03-16T00:44:58.300Z,5.10
2023-03-16T00:47:31.479Z,5.10
2023-03-16T00:49:59.553Z,5.10
2023-03-16T00:52:27.760Z,5.10
2023-03-16T00:54:56.099Z,5.00
2023-03-16T00:57:25.840Z,5.00
2023-03-16T00:59:52.909Z,5.00
2023-03-16T01:02:23.545Z,5.00
2023-03-16T01:04:51.798Z,5.00
2023-03-16T01:07:19.601Z,5.00
2023-03-16T01:09:46.442Z,5.00
2023-03-16T01:12:18.130Z,5.00
2023-03-16T01:14:46.005Z,5.00
2023-03-16T01:17:14.852Z,4.90
2023-03-16T01:19:42.118Z,5.00
2023-03-16T01:22:11.748Z,4.90
2023-03-16T01:24:40.077Z,4.90
2023-03-16T01:27:08.355Z,4.90
2023-03-16T01:29:35.917Z,4.80
2023-03-16T01:32:04.237Z,4.90
2023-03-16T01:34:32.128Z,4.90
2023-03-16T01:36:59.506Z,4.90
2023-03-16T01:39:28.514Z,4.90
2023-03-16T01:41:55.425Z,4.90
2023-03-16T01:44:30.558Z,4.80
2023-03-16T01:46:57.776Z,4.80
2023-03-16T01:49:28.874Z,4.70
2023-03-16T01:52:10.029Z,4.80
2023-03-16T01:54:46.253Z,4.80
2023-03-16T01:57:19.318Z,4.70
2023-03-16T02:00:19.617Z,4.80
2023-03-16T02:02:52.894Z,4.80
2023-03-16T02:05:37.491Z,4.70
2023-03-16T02:08:05.706Z,4.80
2023-03-16T02:10:33.891Z,4.70
2023-03-16T02:13:01.625Z,4.70
2023-03-16T02:15:28.605Z,4.70
2023-03-16T02:18:00.651Z,4.70
2023-03-16T02:20:46.900Z,4.70
2023-03-16T02:23:19.002Z,4.70
2023-03-16T02:26:01.833Z,4.70
2023-03-16T02:28:45.119Z,4.70
2023-03-16T02:31:12.392Z,4.70
2023-03-16T02:33:40.722Z,4.70
2023-03-16T02:36:07.978Z,4.70
2023-03-16T02:38:34.991Z,4.70
2023-03-16T02:41:15.997Z,4.70
2023-03-16T02:43:53.126Z,4.60
2023-03-16T02:46:28.029Z,4.70
2023-03-16T02:49:27.803Z,4.70
2023-03-16T02:51:54.847Z,4.70
2023-03-16T02:54:21.645Z,4.70
2023-03-16T02:56:48.445Z,4.60
2023-03-16T02:59:15.406Z,4.60
2023-03-16T03:01:42.286Z,4.60
2023-03-16T03:04:09.403Z,4.60
2023-03-16T03:06:36.425Z,4.60
2023-03-16T03:09:04.325Z,4.50
2023-03-16T03:11:31.461Z,4.50
2023-03-16T03:13:58.437Z,4.50
2023-03-16T03:16:25.571Z,4.50
2023-03-16T03:18:55.580Z,4.50
2023-03-16T03:21:23.975Z,4.50
2023-03-16T03:23:50.905Z,4.40
2023-03-16T03:26:18.421Z,4.40
2023-03-16T03:28:45.857Z,4.40
2023-03-16T03:31:21.575Z,4.40
2023-03-16T03:33:49.143Z,4.40
2023-03-16T03:38:44.353Z,4.30
2023-03-16T03:41:11.233Z,4.30
2023-03-16T03:43:38.019Z,4.30
2023-03-16T03:46:05.721Z,4.30
2023-03-16T03:48:33.669Z,4.30
2023-03-16T03:51:01.072Z,4.20
2023-03-16T03:53:27.880Z,4.20
2023-03-16T03:55:54.617Z,4.20
2023-03-16T03:58:21.388Z,4.10
2023-03-16T04:00:48.153Z,4.10
2023-03-16T04:03:15.093Z,4.20
2023-03-16T04:05:42.164Z,4.10
2023-03-16T04:08:08.970Z,4.10
2023-03-16T04:10:36.000Z,4.10
2023-03-16T04:13:02.768Z,4.00
2023-03-16T04:15:32.928Z,4.00
2023-03-16T04:18:00.022Z,4.00
2023-03-16T04:20:27.098Z,4.00
2023-03-16T04:22:58.653Z,4.00
2023-03-16T04:25:27.285Z,4.00
2023-03-16T04:27:54.458Z,4.00
2023-03-16T04:30:23.421Z,3.80
2023-03-16T04:32:50.989Z,4.00
2023-03-16T04:35:18.482Z,3.80
2023-03-16T04:37:45.249Z,3.90
2023-03-16T04:40:15.689Z,3.90
2023-03-16T04:42:44.071Z,3.90
2023-03-16T04:45:12.231Z,3.90
2023-03-16T04:47:39.262Z,3.90
2023-03-16T04:50:07.934Z,3.90
2023-03-16T04:52:35.690Z,3.90
2023-03-16T04:55:02.582Z,3.80
2023-03-16T04:57:30.436Z,3.80
2023-03-16T04:59:57.337Z,3.80
2023-03-16T05:02:24.499Z,3.80
2023-03-16T05:04:51.316Z,3.80
2023-03-16T05:07:18.372Z,3.70
2023-03-16T05:09:45.120Z,3.30
2023-03-16T05:12:11.961Z,3.70
2023-03-16T05:14:38.914Z,3.70
2023-03-16T05:17:05.894Z,3.70
2023-03-16T05:19:32.645Z,3.70
2023-03-16T05:21:59.483Z,3.60
2023-03-16T05:24:26.676Z,3.60
2023-03-16T05:26:53.528Z,3.60
2023-03-16T05:29:20.322Z,3.60
2023-03-16T05:31:47.748Z,3.60
2023-03-16T05:34:15.297Z,3.60
2023-03-16T05:36:42.360Z,3.60
2023-03-16T05:39:09.197Z,3.50
2023-03-16T05:41:36.043Z,3.60
2023-03-16T05:46:31.467Z,3.60
2023-03-16T05:48:58.206Z,3.50
2023-03-16T05:51:29.120Z,3.60
2023-03-16T05:53:59.019Z,3.60
2023-03-16T05:56:28.239Z,3.60
2023-03-16T05:58:57.260Z,3.60
2023-03-16T06:01:24.649Z,3.60
2023-03-16T06:03:52.443Z,3.60
2023-03-16T06:06:22.558Z,3.60
2023-03-16T06:08:49.564Z,3.70
2023-03-16T06:11:17.677Z,3.70
2023-03-16T06:13:44.436Z,3.70
2023-03-16T06:16:14.174Z,3.70
2023-03-16T06:18:41.280Z,3.80
2023-03-16T06:21:08.227Z,3.70
2023-03-16T06:23:35.225Z,3.80
2023-03-16T06:26:01.979Z,3.80
2023-03-16T06:28:28.804Z,3.90
2023-03-16T06:30:57.535Z,3.90
2023-03-16T06:33:25.253Z,4.00
2023-03-16T06:35:52.200Z,4.00
2023-03-16T06:38:19.799Z,4.10
2023-03-16T06:40:51.636Z,4.00
2023-03-16T06:43:18.433Z,4.20
2023-03-16T06:45:45.286Z,4.30
2023-03-16T06:48:12.219Z,4.40
2023-03-16T06:50:38.963Z,4.40
2023-03-16T06:53:06.563Z,4.50
2023-03-16T06:55:33.396Z,4.60
2023-03-16T06:58:00.190Z,4.60
2023-03-16T07:00:27.280Z,4.60
2023-03-16T07:02:54.963Z,4.80
2023-03-16T07:05:21.722Z,4.90
2023-03-16T07:07:48.593Z,4.90
2023-03-16T07:10:17.934Z,5.00
2023-03-16T07:12:45.366Z,5.10
2023-03-16T07:15:13.287Z,5.20
2023-03-16T07:17:41.196Z,5.20
2023-03-16T07:20:10.544Z,5.50
2023-03-16T07:22:39.503Z,5.40
2023-03-16T07:25:07.603Z,5.40
2023-03-16T07:27:34.465Z,5.50
2023-03-16T07:30:01.200Z,5.60
2023-03-16T07:32:28.059Z,5.70
2023-03-16T07:34:54.850Z,5.70
2023-03-16T07:37:25.501Z,5.80
2023-03-16T07:39:52.671Z,5.80
2023-03-16T07:42:19.910Z,5.90
2023-03-16T07:47:14.190Z,6.10
2023-03-16T07:49:41.757Z,6.20
2023-03-16T07:52:08.942Z,6.20
2023-03-16T07:54:36.030Z,6.30
2023-03-16T07:57:02.862Z,6.30
2023-03-16T07:59:29.665Z,6.40
2023-03-16T08:01:56.453Z,6.50
2023-03-16T08:04:23.388Z,6.50
2023-03-16T08:06:52.408Z,6.60
2023-03-16T08:09:19.423Z,6.70
2023-03-16T08:11:46.175Z,6.70
2023-03-16T08:14:13.246Z,6.80
2023-03-16T08:16:40.081Z,6.80
2023-03-16T08:19:07.089Z,6.90
2023-03-16T08:21:35.124Z,7.00
2023-03-16T08:24:05.074Z,7.10
2023-03-16T08:26:31.807Z,7.20
2023-03-16T08:29:02.530Z,7.30
2023-03-16T08:31:30.362Z,7.30
2023-03-16T08:36:24.569Z,7.50
2023-03-16T08:39:05.980Z,7.60
2023-03-16T08:41:34.711Z,7.50
2023-03-16T08:44:03.142Z,7.70
2023-03-16T08:46:30.873Z,7.80
2023-03-16T08:48:57.710Z,7.90
2023-03-16T08:51:24.942Z,7.90
2023-03-16T08:56:19.603Z,8.10
2023-03-16T08:58:46.481Z,8.20
2023-03-16T09:01:17.548Z,8.30
2023-03-16T09:03:46.265Z,8.30
2023-03-16T09:06:17.048Z,8.40
2023-03-16T09:08:45.999Z,8.40
2023-03-16T09:11:17.736Z,8.50
2023-03-16T09:13:47.024Z,8.50
2023-03-16T09:16:15.753Z,8.60
2023-03-16T09:18:43.445Z,8.50
2023-03-16T09:21:13.785Z,8.70
2023-03-16T09:23:42.678Z,8.70
2023-03-16T09:26:12.549Z,8.80
2023-03-16T09:28:42.212Z,8.90
2023-03-16T09:31:16.760Z,8.90
2023-03-16T09:36:11.899Z,9.00
2023-03-16T09:38:39.317Z,9.10
2023-03-16T09:41:34.362Z,9.10
2023-03-16T09:44:29.249Z,9.20
2023-03-16T09:47:01.573Z,9.20
2023-03-16T09:49:47.724Z,9.30
2023-03-16T09:52:33.614Z,9.30
2023-03-16T09:55:17.897Z,9.40
2023-03-16T09:57:46.434Z,9.50
2023-03-16T10:01:07.634Z,9.60
2023-03-16T10:04:09.984Z,9.60
2023-03-16T10:07:09.830Z,9.70
2023-03-16T10:09:45.967Z,9.70
2023-03-16T10:12:16.271Z,10.00
2023-03-16T10:15:09.276Z,9.80
2023-03-16T10:17:50.068Z,9.90
2023-03-16T10:20:24.371Z,10.00
2023-03-16T10:22:52.996Z,10.00
2023-03-16T10:25:35.621Z,10.10
2023-03-16T10:28:02.427Z,10.10
2023-03-16T10:30:36.230Z,10.20
2023-03-16T10:33:29.986Z,10.20
2023-03-16T10:36:19.478Z,10.30
2023-03-16T10:38:58.828Z,10.30
2023-03-16T10:41:35.508Z,10.30
2023-03-16T10:44:16.869Z,10.30
2023-03-16T10:46:54.096Z,10.40
2023-03-16T10:49:27.545Z,10.40
2023-03-16T10:51:59.529Z,10.40
2023-03-16T10:54:39.928Z,10.40
2023-03-16T10:57:41.468Z,10.50
2023-03-16T11:00:12.846Z,10.50
2023-03-16T11:02:40.637Z,10.60
2023-03-16T11:05:19.442Z,10.50
2023-03-16T11:08:02.602Z,9.10
2023-03-16T11:10:46.029Z,10.50
2023-03-16T11:13:21.299Z,10.70
2023-03-16T11:15:58.958Z,10.70
2023-03-16T11:18:42.597Z,10.80
2023-03-16T11:21:17.330Z,10.80
2023-03-16T11:23:56.407Z,10.80
2023-03-16T11:26:33.609Z,10.80
2023-03-16T11:29:48.719Z,10.90
2023-03-16T11:32:26.186Z,11.00
2023-03-16T11:34:54.013Z,11.00
2023-03-16T11:37:46.185Z,11.10
2023-03-16T11:40:38.441Z,11.10
2023-03-16T11:43:52.778Z,11.10
2023-03-16T11:46:40.861Z,11.20
2023-03-16T11:49:35.439Z,11.30
2023-03-16T11:52:17.218Z,11.30
2023-03-16T11:55:10.532Z,11.30
2023-03-16T11:58:00.654Z,11.40
2023-03-16T12:01:07.449Z,11.40
2023-03-16T12:04:16.206Z,11.40
2023-03-16T12:07:06.597Z,11.50
2023-03-16T12:10:06.871Z,11.50
2023-03-16T12:13:04.869Z,11.50
2023-03-16T12:15:50.003Z,11.50
2023-03-16T12:18:31.275Z,11.50
2023-03-16T12:21:07.186Z,11.50
2023-03-16T12:23:43.280Z,11.50
2023-03-16T12:28:42.201Z,11.60
2023-03-16T12:31:41.834Z,11.60
2023-03-16T12:34:49.209Z,11.70
2023-03-16T12:37:34.849Z,11.70
2023-03-16T12:40:15.677Z,11.70
2023-03-16T12:43:14.605Z,11.80
2023-03-16T12:46:11.730Z,11.80
2023-03-16T12:48:47.582Z,11.80
2023-03-16T12:51:14.553Z,11.80
2023-03-16T12:53:55.741Z,11.90
2023-03-16T12:56:31.338Z,11.90
2023-03-16T12:59:03.728Z,11.90
2023-03-16T13:01:41.460Z,11.90
2023-03-16T13:04:15.772Z,11.90
2023-03-16T13:06:48.371Z,11.90
2023-03-16T13:09:27.398Z,12.10
2023-03-16T13:11:54.401Z,12.00
2023-03-16T13:14:43.926Z,12.00
2023-03-16T13:17:16.903Z,12.10
2023-03-16T13:20:18.225Z,12.10
2023-03-16T13:23:18.429Z,12.10
2023-03-16T13:26:15.728Z,12.20
2023-03-16T13:28:50.346Z,12.10
2023-03-16T13:31:35.983Z,12.20
2023-03-16T13:34:05.689Z,12.20
2023-03-16T13:36:34.957Z,12.20
2023-03-16T13:39:18.865Z,12.30
2023-03-16T13:42:03.887Z,12.30
2023-03-16T13:44:32.184Z,12.30
2023-03-16T13:47:07.364Z,12.40
2023-03-16T13:49:47.356Z,12.40
2023-03-16T13:52:25.536Z,12.40
2023-03-16T13:54:53.777Z,12.50
2023-03-16T13:57:25.589Z,12.50
2023-03-16T14:00:01.037Z,12.50
2023-03-16T14:02:27.848Z,12.50
2023-03-16T14:04:54.919Z,12.50
2023-03-16T14:07:23.839Z,12.50
2023-03-16T14:09:52.432Z,12.60
2023-03-16T14:12:20.053Z,12.50
2023-03-16T14:14:54.734Z,12.50
2023-03-16T14:17:24.038Z,12.60
2023-03-16T14:20:00.197Z,12.60
2023-03-16T14:22:37.694Z,12.60
2023-03-16T14:25:07.694Z,12.60
2023-03-16T14:27:43.888Z,12.60
2023-03-16T14:30:25.854Z,12.60
2023-03-16T14:33:02.531Z,12.60
2023-03-16T14:35:43.020Z,12.60
2023-03-16T14:38:33.546Z,12.60
2023-03-16T14:41:12.271Z,12.60
2023-03-16T14:43:47.075Z,12.70
2023-03-16T14:46:31.306Z,12.60
2023-03-16T14:49:29.731Z,12.60
2023-03-16T14:52:04.703Z,12.60
2023-03-16T14:54:31.473Z,12.60
2023-03-16T14:57:05.668Z,12.60
2023-03-16T14:59:33.425Z,12.60
2023-03-16T15:02:03.344Z,12.60
2023-03-16T15:04:37.204Z,14.20
2023-03-16T15:07:34.524Z,12.60
2023-03-16T15:10:15.419Z,12.70
2023-03-16T15:12:50.648Z,12.60
2023-03-16T15:15:20.388Z,12.70
2023-03-16T15:17:48.176Z,12.70
2023-03-16T15:20:20.205Z,12.70
2023-03-16T15:22:51.038Z,12.70
2023-03-16T15:25:23.887Z,12.70
2023-03-16T15:27:52.849Z,12.80
2023-03-16T15:30:30.603Z,12.90
2023-03-16T15:32:58.170Z,12.90
2023-03-16T15:35:25.070Z,12.90
2023-03-16T15:37:52.367Z,13.00
2023-03-16T15:40:28.934Z,13.00
2023-03-16T15:42:55.878Z,13.00
2023-03-16T15:45:23.511Z,13.00
2023-03-16T15:47:53.768Z,12.90
2023-03-16T15:50:24.606Z,12.90
2023-03-16T15:52:59.954Z,12.80
2023-03-16T15:55:47.226Z,12.80
2023-03-16T15:58:24.393Z,12.80
2023-03-16T16:00:57.200Z,12.70
2023-03-16T16:03:25.953Z,12.70
2023-03-16T16:05:53.364Z,12.60
2023-03-16T16:08:21.439Z,12.60
2023-03-16T16:10:50.637Z,12.50
2023-03-16T16:13:43.790Z,12.50
2023-03-16T16:16:17.801Z,12.30
2023-03-16T16:18:46.704Z,12.40
2023-03-16T16:21:23.046Z,12.30
2023-03-16T16:23:52.211Z,12.30
2023-03-16T16:26:50.892Z,12.20
2023-03-16T16:29:32.445Z,12.20
2023-03-16T16:32:00.070Z,12.10
2023-03-16T16:34:27.960Z,12.00
2023-03-16T16:36:56.395Z,11.80
2023-03-16T16:39:23.914Z,11.90
2023-03-16T16:41:54.667Z,11.90
2023-03-16T16:44:27.233Z,11.80
2023-03-16T16:46:54.865Z,11.70
2023-03-16T16:49:28.481Z,11.70
2023-03-16T16:51:55.389Z,11.60
2023-03-16T16:54:26.143Z,11.50
2023-03-16T16:56:56.229Z,11.50
2023-03-16T16:59:33.322Z,11.50
2023-03-16T17:02:22.896Z,11.40
2023-03-16T17:04:50.876Z,11.30
2023-03-16T17:07:18.032Z,11.30
2023-03-16T17:09:45.111Z,11.20
2023-03-16T17:12:23.515Z,11.10
2023-03-16T17:14:51.242Z,11.00
2023-03-16T17:17:18.733Z,10.80
2023-03-16T17:19:47.079Z,11.00
2023-03-16T17:22:26.474Z,10.90
2023-03-16T17:27:31.482Z,10.80
2023-03-16T17:29:58.834Z,10.80
2023-03-16T17:32:26.024Z,10.70
2023-03-16T17:37:23.362Z,10.60
2023-03-16T17:39:51.232Z,10.60
2023-03-16T17:42:20.339Z,10.50
2023-03-16T17:44:52.894Z,10.50
2023-03-16T17:47:24.420Z,10.40
2023-03-16T17:49:52.298Z,10.40
2023-03-16T17:52:25.797Z,10.40
2023-03-16T17:54:54.223Z,10.30
2023-03-16T17:57:32.469Z,10.30
2023-03-16T18:00:08.887Z,10.30
2023-03-16T18:02:51.463Z,10.20
2023-03-16T18:05:34.773Z,10.20
2023-03-16T18:08:20.541Z,10.20
2023-03-16T18:10:52.314Z,10.20
2023-03-16T18:13:35.115Z,10.10
2023-03-16T18:16:03.232Z,10.10
2023-03-16T18:18:35.675Z,10.10
2023-03-16T18:21:03.369Z,10.10
2023-03-16T18:23:34.601Z,10.00
2023-03-16T18:26:06.341Z,10.10
2023-03-16T18:28:34.940Z,10.10
2023-03-16T18:31:05.027Z,10.10
2023-03-16T18:33:40.990Z,9.90
2023-03-16T18:36:17.657Z,10.10
2023-03-16T18:38:49.253Z,10.10
2023-03-16T18:41:23.210Z,10.10
2023-03-16T18:43:51.925Z,10.10
2023-03-16T18:46:33.230Z,10.20
2023-03-16T18:49:26.986Z,10.20
2023-03-16T18:51:54.842Z,10.20
2023-03-16T18:54:27.704Z,10.20
2023-03-16T18:56:54.932Z,10.20
2023-03-16T18:59:21.950Z,10.20
2023-03-16T19:01:48.761Z,10.20
2023-03-16T19:04:35.887Z,10.20
2023-03-16T19:07:28.610Z,10.20
2023-03-16T19:09:55.560Z,10.20
2023-03-16T19:12:22.986Z,10.20
2023-03-16T19:14:49.870Z,10.20
2023-03-16T19:17:16.658Z,10.20
2023-03-16T19:19:43.417Z,10.20
2023-03-16T19:22:21.230Z,10.20
2023-03-16T19:24:54.001Z,10.20
2023-03-16T19:27:25.597Z,10.20
2023-03-16T19:29:54.598Z,10.20
2023-03-16T19:32:22.302Z,10.10
2023-03-16T19:34:49.519Z,10.10
2023-03-16T19:37:19.163Z,10.10
2023-03-16T19:39:46.393Z,10.00
2023-03-16T19:42:26.177Z,10.00
2023-03-16T19:44:52.958Z,10.00
2023-03-16T19:47:31.161Z,9.90
2023-03-16T19:49:59.125Z,9.90
2023-03-16T19:52:30.724Z,9.90
2023-03-16T19:54:57.502Z,9.90
2023-03-16T19:57:24.480Z,9.90
2023-03-16T19:59:56.881Z,9.80
2023-03-16T20:02:40.387Z,9.80
2023-03-16T20:05:12.189Z,9.80
2023-03-16T20:07:38.998Z,9.80
2023-03-16T20:10:06.894Z,9.80
2023-03-16T20:12:36.982Z,9.80
2023-03-16T20:15:04.154Z,9.80
2023-03-16T20:17:32.855Z,9.60
2023-03-16T20:19:59.693Z,9.70
2023-03-16T20:22:28.602Z,9.70
2023-03-16T20:24:57.958Z,9.80
2023-03-16T20:27:26.884Z,9.80
2023-03-16T20:29:53.684Z,9.80
2023-03-16T20:32:25.214Z,9.80
2023-03-16T20:34:53.611Z,9.80
2023-03-16T20:37:30.008Z,9.80
2023-03-16T20:39:59.091Z,9.80
2023-03-16T20:42:34.665Z,9.70
2023-03-16T20:45:02.680Z,9.80
2023-03-16T20:47:29.412Z,9.80
2023-03-16T20:50:00.238Z,9.80
2023-03-16T20:52:30.830Z,9.70
2023-03-16T20:54:58.177Z,9.70
2023-03-16T20:57:27.418Z,9.70
2023-03-16T20:59:55.364Z,9.70
2023-03-16T21:02:29.658Z,9.70
2023-03-16T21:04:58.498Z,9.80
2023-03-16T21:07:25.408Z,9.70
2023-03-16T21:09:52.674Z,9.70
2023-03-16T21:12:35.642Z,9.70
2023-03-16T21:15:16.088Z,9.70
2023-03-16T21:17:43.082Z,9.70
2023-03-16T21:20:20.245Z,9.90
2023-03-16T21:22:47.103Z,9.70
2023-03-16T21:25:26.592Z,9.70
2023-03-16T21:27:55.486Z,9.70
2023-03-16T21:30:31.812Z,9.70
2023-03-16T21:33:01.829Z,9.70
2023-03-16T21:35:34.562Z,9.70
2023-03-16T21:38:11.707Z,9.70
2023-03-16T21:40:38.714Z,9.70
2023-03-16T21:45:33.369Z,9.70
2023-03-16T21:48:00.229Z,9.60
2023-03-16T21:50:33.336Z,9.60
2023-03-16T21:53:00.151Z,9.60
2023-03-16T21:55:29.963Z,9.50
2023-03-16T21:57:58.668Z,9.50
2023-03-16T22:00:34.344Z,9.40
2023-03-16T22:03:01.551Z,9.40
2023-03-16T22:05:40.958Z,9.30
2023-03-16T22:08:20.288Z,9.30
2023-03-16T22:10:47.552Z,9.30
2023-03-16T22:13:14.439Z,9.20
2023-03-16T22:15:43.560Z,9.20
2023-03-16T22:18:36.884Z,9.30
2023-03-16T22:21:32.639Z,9.20
2023-03-16T22:24:01.596Z,9.20
2023-03-16T22:26:29.609Z,9.10
2023-03-16T22:28:57.271Z,9.10
2023-03-16T22:31:34.591Z,9.10
2023-03-16T22:34:03.943Z,9.10
2023-03-16T22:36:32.820Z,9.10
2023-03-16T22:39:08.690Z,9.00
2023-03-16T22:41:35.537Z,9.10
2023-03-16T22:44:02.359Z,9.10
2023-03-16T22:46:29.872Z,8.90
2023-03-16T22:48:57.824Z,8.90
2023-03-16T22:51:36.350Z,9.10
2023-03-16T22:54:08.876Z,9.00
2023-03-16T22:56:36.074Z,9.00
2023-03-16T22:59:07.577Z,9.00
2023-03-16T23:01:39.492Z,8.90
2023-03-16T23:04:19.897Z,8.90
2023-03-16T23:06:50.363Z,8.80
2023-03-16T23:09:20.403Z,8.80
2023-03-16T23:11:53.604Z,8.80
2023-03-16T23:14:24.641Z,8.80
2023-03-16T23:16:52.604Z,8.70
2023-03-16T23:19:32.737Z,8.60
2023-03-16T23:22:06.218Z,8.70
2023-03-16T23:24:35.060Z,8.70
2023-03-16T23:27:03.727Z,8.70
2023-03-16T23:29:31.759Z,8.70
2023-03-16T23:34:26.414Z,8.70
2023-03-16T23:36:53.157Z,8.50
2023-03-16T23:39:19.928Z,8.60
2023-03-16T23:41:49.921Z,8.60
2023-03-16T23:44:25.518Z,8.60
2023-03-16T23:46:53.217Z,8.60
2023-03-16T23:49:30.548Z,8.60
2023-03-16T23:51:59.822Z,8.60
2023-03-16T23:54:30.728Z,8.50
2023-03-16T23:56:57.929Z,8.50
2023-03-16T23:59:27.362Z,8.50
